x

Sentry Shoal (46131) Wave Buoy

9:00am - Tue 6th Dec 2016 All times are PST. -8 hours from GMT.

  • Sig Wave height 1.6ft
  • Peak Period 3s
  • Wind
    18mph, 22mph gusts
  • Sea Temp 46°f
  • 空気 Temp 36°f
  • Sea Pressure 1022.9mb
  • Sentry Shoal
  • Sentry Shoal

More Historic Weather Station data

Upgrade to MSW Pro to gain access to the past 30 days of data for over 8000 Wavebouys and Weather Stations around the globe.

Join Pro

Comparision Forecast

View Surf forecast
   
Tue 12/06 9:00am 1.6ft 3s 18 22 mph 1022.9mb 46f 36f
8:00am 1.6ft 3s 18 22 mph 1022.3mb 47f 36f
7:00am 1.6ft 3s 18 22 mph 1021.9mb 47f 37f
6:00am 1.6ft 3s 18 22 mph 1021.5mb 47f 37f
5:00am 1.6ft 3s 16 20 mph 1021.4mb 47f 38f
4:00am 1.6ft 3s 18 20 mph 1021.3mb 47f 38f
3:00am 1.3ft 3s 16 20 mph 1020.9mb 47f 39f
2:00am 1.3ft 3s 16 20 mph 1020.4mb 47f 38f
1:00am 1.3ft 3s 13 18 mph 1020.1mb 47f 38f
12:00am 1ft 2s 13 18 mph 1019.6mb 47f 38f
Mon 12/05 11:00pm 0.3ft 2s 13 16 mph 1019.3mb 47f 39f
10:00pm 0.3ft 2s 9 11 mph 1018.9mb 47f 38f
9:00pm 0.3ft 2s 9 11 mph 1018.4mb 47f 37f
8:00pm 0.3ft 2s 9 11 mph 1017.9mb 47f 37f
7:00pm 0.3ft 2s 9
mph
1017.6mb 47f 37f
6:00pm 0.3ft 2s 7 9 mph 1017.5mb 47f 37f
5:00pm 0.3ft 2s 9
mph
1017.2mb 47f 37f
4:00pm 0.7ft 2s 7 9 mph 1017mb 47f 37f
3:00pm 0.7ft 3s 7 9 mph 1016.9mb 47f 36f
2:00pm 1ft 3s 7 9 mph 1016.8mb 47f 35f
1:00pm 1.3ft 4s 7 9 mph 1016.8mb 47f 36f
12:00pm 1.3ft 4s 11 13 mph 1016.7mb 48f 37f
11:00am 1.3ft 4s 11 13 mph 1016.9mb 47f 36f
9:00am  -   -  4
mph
1017mb - 34f
8:00am 2ft 4s 9 16 mph 1016.7mb 48f 37f
7:00am 1.3ft 3s 11 16 mph 1016.5mb 48f 37f
6:00am 1.3ft 3s 13 18 mph 1016.8mb 48f 36f
5:00am 2.5ft 4s 18 20 mph 1016.9mb 48f 37f
4:00am 2ft 4s 16 20 mph 1017.3mb 48f 39f
3:00am 2ft 4s 11 16 mph 1017.6mb 48f 40f
2:00am 2ft 3s 13 18 mph 1017.7mb 48f 40f
1:00am 1.6ft 3s 16 20 mph 1017.8mb 48f 41f
12:00am 1ft 2s 13 16 mph 1018.1mb 48f 41f
Sun 12/04 11:00pm 0.3ft 2s 9 13 mph 1018.4mb 48f 41f
10:00pm 0.3ft 5s 4
mph
1018.4mb 48f 41f
9:00pm 0.3ft 2s 4 7 mph 1018.1mb 47f 40f
8:00pm 0.3ft 2s 2 4 mph 1018mb 47f 41f
7:00pm 0.7ft 2s 4 7 mph 1018.2mb 48f 41f
6:00pm 0.7ft 2s 7 11 mph 1018.3mb 48f 42f
5:00pm 1ft 3s 9 11 mph 1018.5mb 48f 42f
4:00pm 1.3ft 3s 16 18 mph 1018.1mb 48f 42f
3:00pm 1.3ft 3s 16 18 mph 1017.8mb 48f 43f
2:00pm 1.3ft 3s 16 20 mph 1017.8mb 48f 42f
1:00pm 1.3ft 3s 13 18 mph 1018mb 48f 43f
12:00pm 1.6ft 3s 18 22 mph 1017.9mb 48f 42f
11:00am 1.6ft 3s 20 22 mph 1018mb 48f 42f
10:00am 2ft 4s 18 22 mph 1018.2mb 48f 41f
9:00am 2ft 3s 20 25 mph 1017.5mb 48f 41f
8:00am 1.6ft 3s 16 20 mph 1017.3mb 48f 40f
7:00am 2ft 3s 18 25 mph 1016mb 48f 41f
6:00am  -   -  25
mph
- - -
5:00am 2ft 3s 22 27 mph 1016mb 48f 41f
4:00am 1.3ft 3s 20 25 mph 1016.4mb 48f 41f
3:00am 1ft 2s 16 22 mph 1016.4mb 48f 41f
2:00am 1ft 3s 13 18 mph 1016.9mb 48f 41f
1:00am 2ft 3s 9 16 mph 1017mb 49f 40f
12:00am 1.3ft 3s 20 25 mph 1016.7mb 48f 41f
Sat 12/03 11:00pm 0.7ft 2s 16 18 mph 1016.8mb 48f 42f
10:00pm 1ft 3s 9 11 mph 1016.7mb 48f 42f
9:00pm 1ft 2s 11 13 mph 1017mb 48f 42f
8:00pm 0.7ft 2s 16 18 mph 1017.4mb 49f 43f
7:00pm 0.3ft 2s 13 18 mph 1017.3mb 48f 45f
6:00pm 0.7ft 2s 7 9 mph 1017.7mb 49f 46f
5:00pm 0.7ft 3s 2 4 mph 1018.6mb 49f 45f
4:00pm 1ft 2s 9 11 mph 1019.1mb 49f 46f
3:00pm 0.7ft 2s 11 13 mph 1019.7mb 49f 45f
2:00pm 0.7ft 2s 9 11 mph 1019.7mb 49f 45f
1:00pm 0.7ft 3s 7 9 mph 1020.6mb 48f 46f
12:00pm 0.7ft 3s  -  mph 1021mb 48f 47f
11:00am 0.7ft 3s 4
mph
1021.6mb 48f 46f
10:00am 1ft 3s 9 11 mph 1021mb 48f 45f
9:00am 1ft 3s 4 7 mph 1021mb 48f 45f
8:00am 1.3ft 3s 4 9 mph 1020.8mb 48f 45f
7:00am 1.3ft 2s 16 18 mph 1020.4mb 48f 46f
6:00am 1ft 2s 13 16 mph 1020.9mb 48f 45f
5:00am 0.3ft 5s 13
mph
1020.7mb 48f 45f
4:00am 0.3ft 5s 9
mph
1021.2mb 48f 46f
3:00am 0.3ft 5s 2 4 mph 1021.3mb 48f 45f
2:00am 0.3ft 2s 4
mph
1021.2mb 48f 45f
1:00am 0.3ft 2s 4 7 mph 1020.7mb 48f 44f
12:00am 0.3ft 3s 7 9 mph 1020.5mb 48f 44f
Fri 12/02 11:00pm 0.7ft 3s 4 7 mph 1020.1mb 48f 47f
10:00pm 0.7ft 3s 2
mph
1019.2mb 49f 46f
9:00pm 0.7ft 3s 7 9 mph 1018.3mb 49f 47f
8:00pm 0.7ft 3s 11 13 mph 1017.5mb 49f 47f
7:00pm 1ft 4s 4 7 mph 1016.5mb 49f 49f